Airfield :







YOU CAN JOIN US ON...

 
LOGIN :

Register | Disclaimer

   EN    FR    IT 

 









Legend :    VFR   Marginal VFR   IFR   Intensive IFR   Very Intensive IFR
Visi :
Ceiling :
>= 8 km
>= 3000ft
5 to 8 km
1000 to 3000 ft
1500m to 5 km
500 to 1000 ft
800 to 1500m
200 to 500 ft
< 800m
< 200 ft
Symbols :   Thunderstorms  Fog  Heavy snow  Heavy precipitations  Wind > 20 kt






- Airport Elevation : 276 ft
- IATA code : BVB


SBBV - Boa Vista Int.

CURRENT METAR :
  • 030700Z 01002KT 9999 SCT003 FEW025TCU 24/23 Q1016

EXPIRED METARs :
  • 030600Z 03002KT CAVOK 24/23 Q1017
  • 030500Z 03002KT CAVOK 24/23 Q1017

TAF TAF SBBV
Valid from the 03 at 06:00 until the 04 at 06:00 UTC


030230Z 0306/0406 02010KT 8000 BKN020 FEW030TCU TN23/0309Z TX30/0318Z
TEMPO 0306/0312 35010KT 4000 RA SCT012 BKN015 FEW025TCU
BECMG 0313/0315 35010KT SCT012 BKN020
TEMPO 0316/0321 27010KT 4000 TSRA BKN012 FEW030CB
BECMG 0321/0323 33010KT SCT020 FEW030TCU
TEMPO 0400/0406 02010KT TSRA SCT012 BKN020 FEW030CB RMK PGS
SBAZ FIR / South America



MET'MAP, your aeronautical weather chart ! - Copyright ORBIFLY December 2007 - Disclaimer

ORBIFLY MET'MAP TEAM :

Programming & Development : Alexandra Zaïnal
Concept & original design : Baudouin d'Aumeries
Assistance for programming : Marc-Olivier Méhu
Technical & hardware support : Manuel Goepfert

Contact : metmap@orbifly.com




SOURCES & CREDITS :

   NOAA